Chennai, India
Current Conditions -  °F | °C
As of 9:10 PM on Friday 24 Oct 2014 (Local Time) from VOMM Reporting Station
Few Clouds Few Clouds  
Wind Chill: 79°   Ceiling: Unl
Heat Index: 83°   Visibility: 4mi
Dew Point: 77°   Wind: 0mph
Humidity: 94%   Direction: NA
Pressure: 29.88"   Gusts: NA
Location:  13.06°N, 80.25°E
Report Text: VOMM 241610Z 00000KT 6000 FEW020 26/25 Q1012 BECMG 5000 BR
Loading
Personal Weather Stations






























Interactive Weather Map New forecast layout! Learn more

10-Day Weather Forecast

Advertisements
Track Severe Weather on mobile